createdAt,value
2023-11-18T00:02:06.160Z,3.20
2023-11-18T00:04:32.604Z,4.40
2023-11-18T00:07:00.598Z,4.70
2023-11-18T00:09:27.032Z,5.13
2023-11-18T00:11:53.594Z,5.93
2023-11-18T00:14:21.836Z,6.78
2023-11-18T00:16:50.906Z,5.68
2023-11-18T00:19:18.421Z,3.92
2023-11-18T00:21:45.209Z,5.50
2023-11-18T00:24:11.669Z,4.38
2023-11-18T00:26:38.150Z,4.50
2023-11-18T00:29:05.104Z,6.85
2023-11-18T00:31:33.847Z,7.07
2023-11-18T00:34:00.448Z,7.43
2023-11-18T00:36:27.626Z,8.43
2023-11-18T00:38:54.440Z,6.25
2023-11-18T00:41:20.834Z,7.85
2023-11-18T00:43:47.283Z,7.05
2023-11-18T00:46:13.906Z,7.68
2023-11-18T00:48:40.401Z,7.60
2023-11-18T00:51:07.540Z,6.80
2023-11-18T00:53:36.286Z,6.97
2023-11-18T00:56:03.078Z,7.63
2023-11-18T00:58:30.159Z,8.25
2023-11-18T01:01:01.724Z,6.63
2023-11-18T01:03:29.045Z,6.50
2023-11-18T01:05:55.529Z,7.43
2023-11-18T01:08:24.303Z,7.15
2023-11-18T01:10:50.709Z,7.10
2023-11-18T01:13:17.190Z,6.40
2023-11-18T01:15:43.634Z,5.18
2023-11-18T01:18:10.155Z,5.35
2023-11-18T01:20:36.621Z,8.18
2023-11-18T01:23:03.142Z,7.32
2023-11-18T01:25:30.574Z,5.38
2023-11-18T01:27:59.360Z,6.45
2023-11-18T01:30:27.822Z,6.60
2023-11-18T01:32:54.409Z,5.35
2023-11-18T01:35:20.898Z,5.70
2023-11-18T01:37:49.231Z,5.72
2023-11-18T01:40:16.615Z,6.05
2023-11-18T01:42:44.539Z,7.63
2023-11-18T01:45:13.434Z,7.53
2023-11-18T01:47:45.012Z,8.55
2023-11-18T01:50:13.843Z,8.13
2023-11-18T01:52:43.369Z,7.35
2023-11-18T01:55:11.622Z,7.65
2023-11-18T01:57:38.325Z,7.28
2023-11-18T02:00:07.389Z,6.93
2023-11-18T02:02:34.273Z,6.75
2023-11-18T02:05:02.976Z,6.88
2023-11-18T02:07:30.383Z,8.82
2023-11-18T02:09:57.071Z,9.15
2023-11-18T02:12:57.670Z,8.32
2023-11-18T02:15:26.177Z,6.85
2023-11-18T02:17:54.744Z,8.05
2023-11-18T02:20:25.014Z,9.63
2023-11-18T02:22:54.860Z,7.90
2023-11-18T02:25:25.188Z,7.50
2023-11-18T02:27:54.549Z,7.05
2023-11-18T02:30:21.822Z,6.75
2023-11-18T02:33:15.592Z,9.98
2023-11-18T02:35:53.920Z,6.72
2023-11-18T02:38:29.002Z,8.55
2023-11-18T02:40:58.304Z,6.75
2023-11-18T02:43:29.802Z,7.07
2023-11-18T02:45:58.841Z,7.53
2023-11-18T02:48:29.331Z,6.22
2023-11-18T02:50:55.790Z,8.10
2023-11-18T02:53:25.645Z,6.53
2023-11-18T02:55:55.053Z,6.60
2023-11-18T02:58:22.086Z,6.10
2023-11-18T03:00:48.988Z,6.55
2023-11-18T03:03:16.437Z,6.47
2023-11-18T03:05:42.854Z,6.72
2023-11-18T03:08:12.694Z,7.95
2023-11-18T03:10:45.447Z,6.75
2023-11-18T03:13:13.276Z,6.43
2023-11-18T03:15:42.012Z,7.22
2023-11-18T03:18:10.524Z,7.28
2023-11-18T03:20:37.077Z,6.28
2023-11-18T03:23:03.574Z,6.93
2023-11-18T03:25:32.473Z,6.35
2023-11-18T03:27:59.182Z,6.45
2023-11-18T03:30:30.067Z,6.30
2023-11-18T03:32:56.644Z,6.47
2023-11-18T03:35:25.150Z,6.55
2023-11-18T03:37:52.872Z,6.07
2023-11-18T03:40:19.329Z,6.70
2023-11-18T03:42:50.916Z,7.93
2023-11-18T03:45:18.891Z,5.75
2023-11-18T03:47:46.335Z,7.03
2023-11-18T03:50:14.426Z,7.63
2023-11-18T03:52:41.279Z,7.93
2023-11-18T03:55:09.259Z,7.18
2023-11-18T03:57:35.773Z,8.32
2023-11-18T04:00:02.228Z,8.13
2023-11-18T04:02:30.373Z,6.95
2023-11-18T04:04:56.958Z,7.88
2023-11-18T04:07:23.363Z,6.22
2023-11-18T04:09:54.986Z,8.13
2023-11-18T04:12:21.388Z,7.57
2023-11-18T04:14:47.811Z,6.68
2023-11-18T04:17:14.289Z,7.15
2023-11-18T04:19:46.653Z,7.53
2023-11-18T04:24:46.267Z,8.00
2023-11-18T04:27:12.682Z,6.90
2023-11-18T04:29:39.301Z,7.55
2023-11-18T04:32:06.073Z,8.55
2023-11-18T04:34:36.675Z,12.13
2023-11-18T04:37:07.111Z,8.68
2023-11-18T04:39:33.946Z,9.55
2023-11-18T04:42:02.223Z,10.15
2023-11-18T04:44:28.703Z,11.82
2023-11-18T04:46:55.178Z,8.57
2023-11-18T04:49:21.746Z,9.43
2023-11-18T04:51:48.267Z,12.38
2023-11-18T04:54:20.459Z,12.52
2023-11-18T04:56:47.200Z,13.45
2023-11-18T04:59:13.704Z,13.23
2023-11-18T05:01:44.984Z,15.80
2023-11-18T05:04:17.068Z,14.27
2023-11-18T05:06:43.456Z,12.32
2023-11-18T05:09:10.015Z,14.23
2023-11-18T05:11:39.913Z,14.82
2023-11-18T05:14:12.337Z,16.98
2023-11-18T05:16:40.234Z,16.02
2023-11-18T05:19:08.592Z,15.50
2023-11-18T05:21:35.283Z,17.10
2023-11-18T05:24:01.720Z,17.00
2023-11-18T05:26:28.228Z,17.58
2023-11-18T05:28:55.837Z,16.63
2023-11-18T05:31:27.053Z,18.27
2023-11-18T05:33:59.013Z,17.88
2023-11-18T05:36:38.055Z,19.35
2023-11-18T05:39:06.120Z,18.83
2023-11-18T05:41:33.206Z,21.05
2023-11-18T05:43:59.832Z,20.45
2023-11-18T05:46:27.262Z,25.00
2023-11-18T05:48:54.291Z,21.58
2023-11-18T05:51:28.052Z,20.42
2023-11-18T05:53:54.707Z,20.27
2023-11-18T05:56:23.964Z,21.45
2023-11-18T05:58:55.876Z,20.15
2023-11-18T06:01:23.189Z,22.77
2023-11-18T06:03:52.480Z,20.60
2023-11-18T06:06:22.484Z,18.52
2023-11-18T06:08:54.444Z,18.95
2023-11-18T06:11:21.548Z,18.70
2023-11-18T06:13:51.724Z,17.75
2023-11-18T06:16:25.688Z,23.23
2023-11-18T06:18:54.408Z,22.88
2023-11-18T06:21:25.456Z,18.88
2023-11-18T06:23:56.707Z,20.73
2023-11-18T06:26:29.656Z,19.73
2023-11-18T06:28:57.383Z,19.40
2023-11-18T06:31:25.183Z,19.80
2023-11-18T06:33:52.152Z,18.95
2023-11-18T06:36:19.694Z,17.17
2023-11-18T06:38:47.282Z,18.10
2023-11-18T06:41:17.967Z,16.05
2023-11-18T06:43:55.248Z,17.15
2023-11-18T06:46:23.251Z,15.57
2023-11-18T06:48:55.398Z,14.55
2023-11-18T06:51:25.693Z,14.85
2023-11-18T06:53:52.960Z,13.90
2023-11-18T06:56:24.135Z,14.05
2023-11-18T06:58:50.910Z,13.05
2023-11-18T07:01:18.382Z,13.07
2023-11-18T07:03:55.106Z,11.98
2023-11-18T07:06:23.661Z,10.88
2023-11-18T07:08:50.933Z,12.68
2023-11-18T07:11:20.365Z,10.85
2023-11-18T07:13:50.189Z,12.70
2023-11-18T07:16:20.068Z,12.57
2023-11-18T07:18:46.852Z,14.63
2023-11-18T07:21:15.321Z,14.40
2023-11-18T07:23:43.446Z,12.13
2023-11-18T07:26:11.122Z,12.38
2023-11-18T07:28:37.849Z,10.70
2023-11-18T07:31:06.028Z,11.35
2023-11-18T07:33:33.606Z,11.75
2023-11-18T07:36:00.312Z,12.68
2023-11-18T07:38:28.326Z,11.38
2023-11-18T07:40:57.764Z,11.45
2023-11-18T07:43:24.609Z,11.90
2023-11-18T07:45:53.493Z,11.57
2023-11-18T07:48:21.724Z,11.70
2023-11-18T07:50:48.563Z,12.43
2023-11-18T07:53:17.776Z,10.35
2023-11-18T07:55:45.755Z,12.30
2023-11-18T07:58:14.565Z,9.93
2023-11-18T08:00:43.517Z,10.88
2023-11-18T08:03:15.922Z,11.05
2023-11-18T08:05:47.220Z,11.32
2023-11-18T08:08:18.063Z,11.43
2023-11-18T08:10:45.437Z,11.30
2023-11-18T08:13:19.959Z,10.90
2023-11-18T08:15:46.579Z,11.48
2023-11-18T08:18:13.528Z,11.05
2023-11-18T08:20:44.613Z,11.98
2023-11-18T08:23:13.653Z,13.00
2023-11-18T08:25:41.222Z,12.65
2023-11-18T08:28:09.335Z,14.75
2023-11-18T08:30:38.354Z,14.50
2023-11-18T08:33:10.218Z,13.85
2023-11-18T08:35:37.444Z,11.90
2023-11-18T08:38:05.308Z,11.43
2023-11-18T08:40:35.506Z,11.40
2023-11-18T08:43:06.485Z,12.90
2023-11-18T08:45:38.570Z,10.80
2023-11-18T08:48:09.691Z,10.73
2023-11-18T08:50:37.998Z,11.63
2023-11-18T08:53:10.556Z,11.80
2023-11-18T08:55:40.651Z,11.90
2023-11-18T08:58:19.772Z,12.18
2023-11-18T09:00:55.789Z,12.52
2023-11-18T09:03:35.406Z,11.80
2023-11-18T09:06:18.962Z,10.77
2023-11-18T09:08:54.463Z,12.82
2023-11-18T09:11:28.110Z,12.32
2023-11-18T09:14:01.654Z,11.63
2023-11-18T09:16:32.196Z,11.25
2023-11-18T09:19:03.743Z,10.52
2023-11-18T09:21:31.193Z,13.07
2023-11-18T09:23:58.053Z,13.23
2023-11-18T09:26:31.268Z,12.55
2023-11-18T09:28:59.224Z,12.13
2023-11-18T09:31:25.804Z,12.65
2023-11-18T09:33:55.263Z,12.70
2023-11-18T09:36:23.535Z,11.95
2023-11-18T09:38:53.639Z,12.15
2023-11-18T09:41:25.412Z,12.80
2023-11-18T09:43:55.530Z,12.57
2023-11-18T09:46:29.949Z,11.68
2023-11-18T09:49:16.396Z,11.00
2023-11-18T09:51:48.041Z,11.52
2023-11-18T09:54:26.262Z,10.32
2023-11-18T09:57:00.841Z,9.15
2023-11-18T09:59:44.351Z,8.75
2023-11-18T10:02:11.968Z,7.95
2023-11-18T10:04:40.381Z,8.93
2023-11-18T10:07:12.493Z,8.38
2023-11-18T10:12:13.305Z,8.25
2023-11-18T10:14:45.069Z,9.13
2023-11-18T10:17:15.914Z,7.32
2023-11-18T10:19:52.296Z,7.82
2023-11-18T10:22:29.351Z,6.88
2023-11-18T10:24:59.181Z,7.30
2023-11-18T10:27:27.006Z,6.65
2023-11-18T10:30:03.981Z,7.03
2023-11-18T10:32:37.153Z,6.80
2023-11-18T10:35:06.456Z,6.60
2023-11-18T10:37:33.261Z,6.05
2023-11-18T10:40:05.358Z,6.07
2023-11-18T10:45:04.819Z,5.20
2023-11-18T10:47:40.944Z,5.13
2023-11-18T10:50:11.098Z,4.88
2023-11-18T10:52:38.681Z,5.55
2023-11-18T10:55:14.339Z,4.18
2023-11-18T10:57:43.224Z,5.80
2023-11-18T11:00:20.278Z,5.30
2023-11-18T11:02:52.984Z,4.40
2023-11-18T11:05:42.778Z,4.82
2023-11-18T11:08:09.821Z,5.30
2023-11-18T11:10:37.081Z,4.35
2023-11-18T11:13:03.955Z,4.65
2023-11-18T11:15:39.812Z,5.47
2023-11-18T11:18:16.881Z,3.95
2023-11-18T11:20:52.216Z,3.63
2023-11-18T11:23:45.271Z,3.67
2023-11-18T11:26:29.215Z,4.15
2023-11-18T11:29:07.445Z,3.53
2023-11-18T11:31:40.179Z,3.28
2023-11-18T11:34:24.883Z,3.25
2023-11-18T11:36:53.841Z,3.03
2023-11-18T11:39:27.173Z,3.25
2023-11-18T11:41:57.412Z,3.45
2023-11-18T11:44:32.212Z,3.13
2023-11-18T11:47:01.915Z,3.28
2023-11-18T11:49:38.178Z,2.33
2023-11-18T11:52:16.106Z,2.33
2023-11-18T11:55:04.056Z,1.90
2023-11-18T11:57:34.054Z,1.85
2023-11-18T12:00:16.260Z,1.77
2023-11-18T12:02:55.727Z,1.73
2023-11-18T12:05:29.149Z,2.20
2023-11-18T12:07:59.519Z,1.75
2023-11-18T12:10:39.375Z,2.17
2023-11-18T12:13:17.077Z,1.90
2023-11-18T12:16:05.177Z,2.63
2023-11-18T12:18:37.747Z,1.90
2023-11-18T12:21:05.282Z,1.70
2023-11-18T12:23:36.012Z,1.73
2023-11-18T12:26:04.340Z,1.40
2023-11-18T12:28:35.765Z,1.55
2023-11-18T12:31:07.631Z,1.88
2023-11-18T12:33:57.703Z,1.17
2023-11-18T12:36:31.133Z,1.60
2023-11-18T12:39:38.957Z,2.58
2023-11-18T12:42:23.944Z,2.42
2023-11-18T12:45:21.899Z,1.90
2023-11-18T12:47:56.181Z,2.45
2023-11-18T12:50:29.643Z,1.38
2023-11-18T12:52:58.514Z,1.40
2023-11-18T12:55:27.482Z,2.22
2023-11-18T12:57:55.259Z,1.75
2023-11-18T13:00:27.906Z,1.92
2023-11-18T13:02:59.486Z,1.85
2023-11-18T13:05:31.294Z,1.58
2023-11-18T13:08:02.798Z,1.42
2023-11-18T13:10:29.436Z,1.23
2023-11-18T13:12:59.198Z,1.58
2023-11-18T13:15:28.542Z,1.05
2023-11-18T13:18:08.350Z,1.40
2023-11-18T13:20:36.923Z,1.42
2023-11-18T13:23:09.794Z,1.50
2023-11-18T13:25:40.519Z,1.75
2023-11-18T13:28:12.134Z,1.85
2023-11-18T13:30:40.950Z,1.97
2023-11-18T13:33:08.652Z,1.65
2023-11-18T13:35:36.559Z,1.77
2023-11-18T13:38:05.793Z,1.35
2023-11-18T13:40:47.876Z,1.60
2023-11-18T13:43:14.932Z,1.17
2023-11-18T13:45:43.393Z,1.77
2023-11-18T13:48:13.381Z,1.67
2023-11-18T13:50:44.704Z,1.60
2023-11-18T13:53:14.165Z,1.50
2023-11-18T13:55:41.362Z,1.40
2023-11-18T13:58:11.582Z,1.40
2023-11-18T14:00:40.724Z,1.20
2023-11-18T14:03:12.935Z,1.55
2023-11-18T14:05:40.127Z,1.30
2023-11-18T14:08:13.461Z,1.42
2023-11-18T14:10:42.440Z,1.50
2023-11-18T14:13:13.906Z,1.77
2023-11-18T14:15:43.549Z,1.83
2023-11-18T14:18:14.096Z,1.33
2023-11-18T14:20:41.234Z,1.30
2023-11-18T14:23:08.400Z,1.33
2023-11-18T14:25:35.136Z,1.63
2023-11-18T14:28:03.626Z,1.20
2023-11-18T14:30:31.411Z,1.13
2023-11-18T14:33:00.140Z,1.27
2023-11-18T14:35:30.130Z,1.58
2023-11-18T14:37:59.619Z,1.20
2023-11-18T14:40:26.104Z,1.10
2023-11-18T14:42:53.256Z,1.70
2023-11-18T14:45:19.851Z,1.60
2023-11-18T14:47:47.126Z,2.05
2023-11-18T14:50:18.952Z,1.15
2023-11-18T14:52:53.105Z,1.92
2023-11-18T14:55:22.097Z,2.03
2023-11-18T14:57:48.868Z,1.98
2023-11-18T15:00:23.879Z,2.25
2023-11-18T15:02:51.740Z,1.63
2023-11-18T15:05:20.162Z,2.15
2023-11-18T15:07:48.922Z,1.77
2023-11-18T15:10:20.805Z,2.15
2023-11-18T15:12:49.384Z,2.00
2023-11-18T15:15:19.590Z,1.35
2023-11-18T15:17:48.505Z,1.80
2023-11-18T15:20:24.143Z,1.80
2023-11-18T15:22:53.126Z,2.20
2023-11-18T15:25:19.905Z,2.25
2023-11-18T15:27:47.137Z,3.22
2023-11-18T15:30:15.278Z,3.85
2023-11-18T15:32:45.291Z,1.98
2023-11-18T15:35:13.847Z,2.15
2023-11-18T15:37:47.011Z,1.52
2023-11-18T15:40:15.430Z,1.95
2023-11-18T15:42:43.635Z,1.85
2023-11-18T15:45:17.808Z,2.70
2023-11-18T15:47:45.249Z,2.40
2023-11-18T15:50:19.804Z,1.92
2023-11-18T15:52:48.965Z,1.77
2023-11-18T15:55:19.102Z,2.17
2023-11-18T15:57:56.299Z,2.50
2023-11-18T16:00:26.047Z,2.25
2023-11-18T16:03:01.826Z,2.13
2023-11-18T16:05:34.331Z,2.17
2023-11-18T16:08:02.546Z,2.47
2023-11-18T16:10:29.064Z,3.30
2023-11-18T16:12:58.660Z,3.60
2023-11-18T16:15:29.769Z,2.75
2023-11-18T16:17:58.641Z,3.72
2023-11-18T16:20:34.612Z,3.70
2023-11-18T16:23:05.530Z,3.08
2023-11-18T16:25:35.215Z,2.72
2023-11-18T16:28:03.461Z,2.60
2023-11-18T16:30:33.833Z,2.45
2023-11-18T16:33:05.251Z,2.83
2023-11-18T16:35:32.138Z,3.08
2023-11-18T16:38:01.142Z,3.90
2023-11-18T16:40:28.497Z,3.60
2023-11-18T16:42:57.004Z,2.85
2023-11-18T16:45:25.720Z,3.00
2023-11-18T16:47:53.955Z,2.95
2023-11-18T16:50:24.699Z,2.83
2023-11-18T16:52:51.945Z,2.65
2023-11-18T16:55:18.671Z,3.00
2023-11-18T16:57:46.816Z,3.13
2023-11-18T17:00:17.256Z,2.42
2023-11-18T17:02:48.635Z,3.33
2023-11-18T17:05:18.015Z,2.93
2023-11-18T17:07:44.522Z,2.97
2023-11-18T17:10:14.083Z,2.70
2023-11-18T17:12:46.022Z,3.03
2023-11-18T17:15:16.758Z,3.25
2023-11-18T17:17:45.219Z,2.95
2023-11-18T17:20:13.655Z,3.03
2023-11-18T17:22:43.216Z,2.67
2023-11-18T17:25:11.651Z,3.03
2023-11-18T17:27:38.214Z,3.08
2023-11-18T17:30:13.080Z,3.17
2023-11-18T17:32:50.779Z,3.00
2023-11-18T17:35:21.467Z,8.43
2023-11-18T17:37:48.324Z,3.78
2023-11-18T17:40:16.312Z,3.35
2023-11-18T17:42:47.082Z,3.28
2023-11-18T17:45:15.397Z,3.00
2023-11-18T17:47:43.843Z,3.20
2023-11-18T17:50:13.570Z,2.83
2023-11-18T17:52:42.449Z,2.40
2023-11-18T17:55:09.858Z,2.20
2023-11-18T17:57:36.747Z,6.90
2023-11-18T18:00:20.876Z,7.32
2023-11-18T18:02:48.472Z,2.40
2023-11-18T18:05:15.419Z,22.17
2023-11-18T18:07:44.694Z,4.40
2023-11-18T18:10:13.446Z,4.38
2023-11-18T18:12:42.312Z,5.85
2023-11-18T18:15:13.429Z,3.40
2023-11-18T18:17:39.944Z,3.58
2023-11-18T18:20:10.940Z,4.78
2023-11-18T18:22:38.594Z,3.30
2023-11-18T18:25:05.752Z,3.97
2023-11-18T18:27:35.195Z,5.10
2023-11-18T18:30:03.693Z,3.33
2023-11-18T18:32:30.585Z,3.55
2023-11-18T18:34:57.366Z,3.90
2023-11-18T18:37:27.301Z,4.13
2023-11-18T18:39:55.285Z,3.72
2023-11-18T18:42:25.323Z,5.25
2023-11-18T18:44:55.510Z,7.93
2023-11-18T18:47:26.979Z,4.72
2023-11-18T18:49:56.377Z,3.25
2023-11-18T18:52:22.854Z,3.60
2023-11-18T18:54:50.053Z,9.48
2023-11-18T18:57:16.842Z,3.42
2023-11-18T18:59:43.962Z,8.48
2023-11-18T19:02:11.062Z,4.05
2023-11-18T19:04:38.326Z,5.10
2023-11-18T19:07:05.090Z,6.63
2023-11-18T19:09:31.640Z,4.25
2023-11-18T19:11:58.198Z,4.57
2023-11-18T19:14:24.658Z,4.03
2023-11-18T19:16:53.450Z,4.25
2023-11-18T19:19:20.535Z,3.42
2023-11-18T19:21:51.893Z,3.75
2023-11-18T19:24:19.923Z,5.20
2023-11-18T19:26:49.332Z,4.55
2023-11-18T19:29:15.980Z,4.35
2023-11-18T19:31:42.637Z,3.97
2023-11-18T19:34:11.667Z,3.58
2023-11-18T19:36:40.785Z,4.10
2023-11-18T19:39:09.427Z,3.47
2023-11-18T19:41:36.444Z,3.47
2023-11-18T19:44:03.065Z,2.78
2023-11-18T19:46:29.924Z,2.70
2023-11-18T19:48:56.579Z,3.25
2023-11-18T19:51:22.980Z,18.58
2023-11-18T19:53:49.414Z,3.35
2023-11-18T19:56:16.273Z,5.88
2023-11-18T19:58:42.890Z,3.67
2023-11-18T20:01:18.088Z,3.35
2023-11-18T20:03:45.537Z,3.90
2023-11-18T20:06:12.446Z,3.63
2023-11-18T20:08:43.625Z,2.90
2023-11-18T20:11:13.182Z,3.40
2023-11-18T20:13:40.686Z,6.15
2023-11-18T20:16:10.216Z,5.00
2023-11-18T20:18:36.827Z,4.65
2023-11-18T20:21:03.920Z,3.70
2023-11-18T20:23:32.997Z,3.38
2023-11-18T20:26:05.762Z,3.42
2023-11-18T20:28:35.227Z,3.30
2023-11-18T20:31:01.735Z,3.08
2023-11-18T20:33:28.203Z,3.80
2023-11-18T20:35:59.507Z,3.60
2023-11-18T20:38:28.166Z,4.20
2023-11-18T20:40:54.629Z,4.15
2023-11-18T20:43:25.957Z,6.07
2023-11-18T20:45:54.840Z,7.55
2023-11-18T20:48:21.404Z,5.85
2023-11-18T20:50:52.615Z,5.10
2023-11-18T20:53:21.385Z,5.53
2023-11-18T20:55:48.357Z,3.95
2023-11-18T20:58:17.375Z,4.65
2023-11-18T21:00:43.925Z,4.68
2023-11-18T21:03:10.738Z,5.28
2023-11-18T21:05:37.519Z,4.28
2023-11-18T21:08:07.768Z,5.28
2023-11-18T21:10:35.232Z,4.10
2023-11-18T21:13:01.953Z,4.30
2023-11-18T21:15:28.367Z,3.60
2023-11-18T21:17:55.034Z,3.65
2023-11-18T21:20:21.677Z,4.78
2023-11-18T21:22:50.161Z,3.13
2023-11-18T21:25:19.954Z,3.90
2023-11-18T21:27:49.059Z,3.30
2023-11-18T21:30:15.721Z,5.70
2023-11-18T21:32:46.541Z,4.93
2023-11-18T21:35:15.392Z,3.38
2023-11-18T21:37:42.104Z,3.35
2023-11-18T21:40:13.382Z,3.58
2023-11-18T21:42:41.018Z,3.00
2023-11-18T21:45:08.189Z,3.28
2023-11-18T21:47:37.190Z,4.85
2023-11-18T21:50:06.614Z,4.45
2023-11-18T21:52:35.694Z,4.40
2023-11-18T21:55:04.772Z,5.10
2023-11-18T21:57:31.286Z,6.30
2023-11-18T21:59:57.700Z,6.15
2023-11-18T22:02:24.485Z,6.53
2023-11-18T22:04:51.277Z,7.70
2023-11-18T22:07:19.978Z,5.70
2023-11-18T22:09:48.130Z,5.63
2023-11-18T22:12:15.170Z,4.53
2023-11-18T22:14:41.797Z,4.78
2023-11-18T22:17:11.076Z,4.15
2023-11-18T22:19:37.513Z,3.53
2023-11-18T22:22:06.304Z,3.10
2023-11-18T22:24:32.777Z,4.40
2023-11-18T22:27:01.615Z,3.50
2023-11-18T22:29:28.949Z,3.70
2023-11-18T22:31:56.318Z,4.32
2023-11-18T22:34:22.790Z,3.90
2023-11-18T22:36:49.434Z,3.92
2023-11-18T22:39:23.942Z,3.78
2023-11-18T22:41:52.928Z,3.97
2023-11-18T22:44:23.654Z,3.38
2023-11-18T22:46:50.511Z,3.30
2023-11-18T22:49:18.015Z,3.78
2023-11-18T22:51:44.455Z,3.63
2023-11-18T22:54:12.143Z,3.55
2023-11-18T22:56:38.704Z,3.65
2023-11-18T22:59:05.575Z,3.90
2023-11-18T23:01:32.128Z,3.13
2023-11-18T23:03:59.277Z,4.10
2023-11-18T23:06:30.258Z,3.75
2023-11-18T23:08:59.113Z,4.15
2023-11-18T23:11:26.524Z,3.92
2023-11-18T23:13:53.414Z,4.15
2023-11-18T23:16:22.025Z,4.63
2023-11-18T23:18:48.638Z,3.45
2023-11-18T23:21:17.659Z,3.72
2023-11-18T23:23:44.097Z,5.75
2023-11-18T23:26:12.705Z,3.58
2023-11-18T23:28:39.219Z,4.20
2023-11-18T23:31:06.080Z,3.65
2023-11-18T23:33:32.830Z,3.78
2023-11-18T23:36:03.778Z,4.18
2023-11-18T23:38:30.973Z,3.78
2023-11-18T23:40:57.425Z,4.50
2023-11-18T23:43:23.962Z,3.95
2023-11-18T23:45:50.509Z,5.45
2023-11-18T23:48:18.299Z,5.20
2023-11-18T23:50:44.928Z,3.83
2023-11-18T23:53:13.857Z,4.00
2023-11-18T23:55:40.341Z,5.35
2023-11-18T23:58:09.258Z,4.75
